createdAt,value
2024-03-26T00:02:17.437Z,34.20
2024-03-26T00:04:49.790Z,35.10
2024-03-26T00:07:24.603Z,35.90
2024-03-26T00:09:58.768Z,35.50
2024-03-26T00:12:32.909Z,35.10
2024-03-26T00:15:06.239Z,38.70
2024-03-26T00:17:40.190Z,41.70
2024-03-26T00:20:14.919Z,40.10
2024-03-26T00:22:47.156Z,38.30
2024-03-26T00:25:21.925Z,36.90
2024-03-26T00:28:05.692Z,40.60
2024-03-26T00:30:38.278Z,36.10
2024-03-26T00:33:11.306Z,38.00
2024-03-26T00:35:44.427Z,35.20
2024-03-26T00:38:17.882Z,37.20
2024-03-26T00:40:50.352Z,35.00
2024-03-26T00:43:28.429Z,38.70
2024-03-26T00:46:02.529Z,36.50
2024-03-26T00:48:36.272Z,37.40
2024-03-26T00:51:10.666Z,37.50
2024-03-26T00:53:43.981Z,39.30
2024-03-26T00:56:17.500Z,37.10
2024-03-26T00:58:52.920Z,37.60
2024-03-26T01:01:28.597Z,38.30
2024-03-26T01:04:02.516Z,35.50
2024-03-26T01:06:35.172Z,37.40
2024-03-26T01:09:09.187Z,36.30
2024-03-26T01:11:42.612Z,34.10
2024-03-26T01:14:18.126Z,33.50
2024-03-26T01:16:50.426Z,33.80
2024-03-26T01:19:25.615Z,32.80
2024-03-26T01:22:01.819Z,33.50
2024-03-26T01:24:37.516Z,32.50
2024-03-26T01:27:11.746Z,31.10
2024-03-26T01:29:45.688Z,29.50
2024-03-26T01:32:18.677Z,31.40
2024-03-26T01:34:55.298Z,30.80
2024-03-26T01:37:28.339Z,32.10
2024-03-26T01:40:00.929Z,37.00
2024-03-26T01:42:35.795Z,36.40
2024-03-26T01:45:11.690Z,38.50
2024-03-26T01:47:45.845Z,39.30
2024-03-26T01:50:20.010Z,34.30
2024-03-26T01:52:54.701Z,31.40
2024-03-26T01:55:29.473Z,31.30
2024-03-26T01:58:05.363Z,32.10
2024-03-26T02:00:39.675Z,31.80
2024-03-26T02:03:10.966Z,29.90
2024-03-26T02:05:42.946Z,30.60
2024-03-26T02:11:44.954Z,29.10
2024-03-26T02:14:19.152Z,28.10
2024-03-26T02:16:50.435Z,32.80
2024-03-26T02:19:36.740Z,31.80
2024-03-26T02:22:24.361Z,28.90
2024-03-26T02:24:57.361Z,29.20
2024-03-26T02:27:30.489Z,31.00
2024-03-26T02:30:03.976Z,30.50
2024-03-26T02:32:37.185Z,31.10
2024-03-26T02:35:16.980Z,32.10
2024-03-26T02:37:51.441Z,31.80
2024-03-26T02:40:25.662Z,32.60
2024-03-26T02:42:59.749Z,30.90
2024-03-26T02:45:35.535Z,30.30
2024-03-26T02:48:10.307Z,33.50
2024-03-26T02:50:43.271Z,31.60
2024-03-26T02:53:16.617Z,34.00
2024-03-26T02:55:49.927Z,31.00
2024-03-26T02:58:22.895Z,31.20
2024-03-26T03:01:06.250Z,31.60
2024-03-26T03:03:41.470Z,32.50
2024-03-26T03:06:15.514Z,29.30
2024-03-26T03:08:48.981Z,32.70
2024-03-26T03:11:23.898Z,28.40
2024-03-26T03:13:57.485Z,32.30
2024-03-26T03:16:30.582Z,29.30
2024-03-26T03:19:03.828Z,29.40
2024-03-26T03:21:37.466Z,29.20
2024-03-26T03:24:11.098Z,29.20
2024-03-26T03:26:45.459Z,28.80
2024-03-26T03:29:18.550Z,29.50
2024-03-26T03:31:52.446Z,29.10
2024-03-26T03:34:25.548Z,29.20
2024-03-26T03:36:58.689Z,27.00
2024-03-26T03:39:34.976Z,27.30
2024-03-26T03:42:09.077Z,30.10
2024-03-26T03:44:42.680Z,29.20
2024-03-26T03:47:16.914Z,28.30
2024-03-26T03:49:51.039Z,28.90
2024-03-26T03:52:25.162Z,33.90
2024-03-26T03:54:57.966Z,29.50
2024-03-26T03:57:34.165Z,30.50
2024-03-26T04:00:12.082Z,30.90
2024-03-26T04:02:47.051Z,30.00
2024-03-26T04:05:20.957Z,33.00
2024-03-26T04:07:54.659Z,28.40
2024-03-26T04:10:30.424Z,30.50
2024-03-26T04:13:03.516Z,28.20
2024-03-26T04:15:42.543Z,29.60
2024-03-26T04:18:16.037Z,29.90
2024-03-26T04:20:50.472Z,32.10
2024-03-26T04:23:44.778Z,33.30
2024-03-26T04:26:18.541Z,29.90
2024-03-26T04:28:54.107Z,29.10
2024-03-26T04:31:26.471Z,34.50
2024-03-26T04:34:00.206Z,42.40
2024-03-26T04:36:36.421Z,38.80
2024-03-26T04:39:12.490Z,35.90
2024-03-26T04:41:47.067Z,37.70
2024-03-26T04:44:18.860Z,39.50
2024-03-26T04:46:52.338Z,33.60
2024-03-26T04:49:26.628Z,40.00
2024-03-26T04:51:59.723Z,36.30
2024-03-26T04:54:36.419Z,38.30
2024-03-26T04:57:09.042Z,38.20
2024-03-26T04:59:42.978Z,39.50
2024-03-26T05:02:15.958Z,37.00
2024-03-26T05:04:49.884Z,40.40
2024-03-26T05:07:23.334Z,39.30
2024-03-26T05:09:56.023Z,44.70
2024-03-26T05:12:32.217Z,45.90
2024-03-26T05:15:08.565Z,47.60
2024-03-26T05:17:41.301Z,45.40
2024-03-26T05:20:15.773Z,46.80
2024-03-26T05:22:48.241Z,41.90
2024-03-26T05:25:22.004Z,40.70
2024-03-26T05:27:56.223Z,44.20
2024-03-26T05:30:29.623Z,41.90
2024-03-26T05:33:02.167Z,38.30
2024-03-26T05:35:36.836Z,40.70
2024-03-26T05:38:11.389Z,35.10
2024-03-26T05:40:48.123Z,39.70
2024-03-26T05:43:22.884Z,42.70
2024-03-26T05:45:56.230Z,41.80
2024-03-26T05:48:30.322Z,40.00
2024-03-26T05:51:02.736Z,42.90
2024-03-26T05:53:36.794Z,37.80
2024-03-26T05:56:10.116Z,39.80
2024-03-26T05:58:44.047Z,42.00
2024-03-26T06:01:16.331Z,41.30
2024-03-26T06:03:51.614Z,46.80
2024-03-26T06:06:25.351Z,44.00
2024-03-26T06:08:58.382Z,46.70
2024-03-26T06:11:33.015Z,52.30
2024-03-26T06:14:06.403Z,49.20
2024-03-26T06:16:40.396Z,60.80
2024-03-26T06:19:14.157Z,48.40
2024-03-26T06:21:47.527Z,56.40
2024-03-26T06:24:22.106Z,58.50
2024-03-26T06:26:56.248Z,54.80
2024-03-26T06:29:29.936Z,51.50
2024-03-26T06:32:05.201Z,57.20
2024-03-26T06:34:40.230Z,56.00
2024-03-26T06:37:14.531Z,59.30
2024-03-26T06:39:49.026Z,53.10
2024-03-26T06:42:24.854Z,55.20
2024-03-26T06:44:59.787Z,45.10
2024-03-26T06:47:32.451Z,45.60
2024-03-26T06:50:05.819Z,47.50
2024-03-26T06:52:39.143Z,42.60
2024-03-26T06:55:18.216Z,38.10
2024-03-26T06:57:52.255Z,44.70
2024-03-26T07:00:29.008Z,54.80
2024-03-26T07:03:05.671Z,44.80
2024-03-26T07:05:46.794Z,43.90
2024-03-26T07:08:25.316Z,52.60
2024-03-26T07:10:58.604Z,37.80
2024-03-26T07:13:32.218Z,43.10
2024-03-26T07:16:05.563Z,41.90
2024-03-26T07:18:39.222Z,45.70
2024-03-26T07:21:11.655Z,35.40
2024-03-26T07:23:48.839Z,35.40
2024-03-26T07:26:23.704Z,32.00
2024-03-26T07:28:57.591Z,30.40
2024-03-26T07:31:43.998Z,51.40
2024-03-26T07:34:29.778Z,105.50
2024-03-26T07:37:02.229Z,63.30
2024-03-26T07:39:38.684Z,68.20
2024-03-26T07:42:12.200Z,87.30
2024-03-26T07:44:45.662Z,43.90
2024-03-26T07:47:20.779Z,42.80
2024-03-26T07:49:54.583Z,38.60
2024-03-26T07:52:29.652Z,52.20
2024-03-26T07:55:04.090Z,49.40
2024-03-26T07:57:40.884Z,36.30
2024-03-26T08:00:18.447Z,35.10
2024-03-26T08:02:54.903Z,33.90
2024-03-26T08:05:30.825Z,33.60
2024-03-26T08:08:05.677Z,35.90
2024-03-26T08:10:45.165Z,36.60
2024-03-26T08:13:23.467Z,35.20
2024-03-26T08:15:56.846Z,36.20
2024-03-26T08:18:34.953Z,35.60
2024-03-26T08:21:09.727Z,34.20
2024-03-26T08:23:42.653Z,34.00
2024-03-26T08:26:15.790Z,36.00
2024-03-26T08:28:48.453Z,34.10
2024-03-26T08:31:23.591Z,31.10
2024-03-26T08:33:57.042Z,34.20
2024-03-26T08:36:30.979Z,84.60
2024-03-26T08:39:11.529Z,33.20
2024-03-26T08:41:45.883Z,30.50
2024-03-26T08:44:20.354Z,32.40
2024-03-26T08:46:59.986Z,33.40
2024-03-26T08:49:34.616Z,32.40
2024-03-26T08:52:14.539Z,31.00
2024-03-26T08:54:48.987Z,30.10
2024-03-26T08:57:31.439Z,29.10
2024-03-26T09:00:12.026Z,27.10
2024-03-26T09:02:45.608Z,29.00
2024-03-26T09:05:18.919Z,28.50
2024-03-26T09:07:51.943Z,27.90
2024-03-26T09:10:25.879Z,24.90
2024-03-26T09:13:00.494Z,24.60
2024-03-26T09:15:37.567Z,24.60
2024-03-26T09:18:11.279Z,25.80
2024-03-26T09:20:45.887Z,23.60
2024-03-26T09:23:22.786Z,24.60
2024-03-26T09:26:02.558Z,28.00
2024-03-26T09:28:51.837Z,25.70
2024-03-26T09:31:27.972Z,23.60
2024-03-26T09:34:04.559Z,24.90
2024-03-26T09:36:41.317Z,22.00
2024-03-26T09:39:15.533Z,22.00
2024-03-26T09:41:54.045Z,19.50
2024-03-26T09:44:29.937Z,20.30
2024-03-26T09:47:09.054Z,23.30
2024-03-26T09:49:43.417Z,20.30
2024-03-26T09:52:20.264Z,20.30
2024-03-26T09:54:58.935Z,20.20
2024-03-26T09:57:33.203Z,18.60
2024-03-26T10:00:05.687Z,21.30
2024-03-26T10:02:40.843Z,23.50
2024-03-26T10:05:18.058Z,24.80
2024-03-26T10:07:51.567Z,24.50
2024-03-26T10:10:26.689Z,23.70
2024-03-26T10:13:11.767Z,26.70
2024-03-26T10:15:47.637Z,26.20
2024-03-26T10:18:36.321Z,27.70
2024-03-26T10:21:16.744Z,23.80
2024-03-26T10:23:50.160Z,22.10
2024-03-26T10:26:26.454Z,23.40
2024-03-26T10:29:00.731Z,25.50
2024-03-26T10:31:36.626Z,25.10
2024-03-26T10:34:11.103Z,25.80
2024-03-26T10:36:46.212Z,25.80
2024-03-26T10:39:21.417Z,22.40
2024-03-26T10:41:57.603Z,24.60
2024-03-26T10:44:32.492Z,25.30
2024-03-26T10:47:11.635Z,26.70
2024-03-26T10:49:45.374Z,23.20
2024-03-26T10:52:20.903Z,19.60
2024-03-26T10:55:01.433Z,22.90
2024-03-26T10:57:36.173Z,21.60
2024-03-26T11:00:15.417Z,20.60
2024-03-26T11:02:54.985Z,21.50
2024-03-26T11:05:29.165Z,21.20
2024-03-26T11:08:07.661Z,23.30
2024-03-26T11:11:01.215Z,19.10
2024-03-26T11:13:36.501Z,67.20
2024-03-26T11:16:10.958Z,18.90
2024-03-26T11:18:46.079Z,34.10
2024-03-26T11:21:20.697Z,62.10
2024-03-26T11:23:57.995Z,24.60
2024-03-26T11:26:31.271Z,16.80
2024-03-26T11:29:10.785Z,17.40
2024-03-26T11:31:46.400Z,16.80
2024-03-26T11:34:22.636Z,17.90
2024-03-26T11:36:58.955Z,18.00
2024-03-26T11:39:34.950Z,18.90
2024-03-26T11:42:08.228Z,19.60
2024-03-26T11:44:41.159Z,19.80
2024-03-26T11:47:15.734Z,20.40
2024-03-26T11:49:51.234Z,19.70
2024-03-26T11:52:27.265Z,20.00
2024-03-26T11:55:02.938Z,20.70
2024-03-26T11:57:39.418Z,20.30
2024-03-26T12:00:18.844Z,20.90
2024-03-26T12:02:53.378Z,22.40
2024-03-26T12:05:26.920Z,19.40
2024-03-26T12:08:02.346Z,20.50
2024-03-26T12:10:36.241Z,35.60
2024-03-26T12:13:10.261Z,54.90
2024-03-26T12:15:45.354Z,22.40
2024-03-26T12:18:20.591Z,20.20
2024-03-26T12:21:00.595Z,19.70
2024-03-26T12:23:34.770Z,16.70
2024-03-26T12:26:10.123Z,24.40
2024-03-26T12:28:44.832Z,16.40
2024-03-26T12:31:19.546Z,16.50
2024-03-26T12:34:00.347Z,17.80
2024-03-26T12:36:34.179Z,12.60
2024-03-26T12:39:11.226Z,14.70
2024-03-26T12:41:44.078Z,12.90
2024-03-26T12:44:19.923Z,15.70
2024-03-26T12:46:56.580Z,14.00
2024-03-26T12:49:32.060Z,13.10
2024-03-26T12:52:06.090Z,12.50
2024-03-26T12:54:40.688Z,12.30
2024-03-26T12:57:15.372Z,13.70
2024-03-26T12:59:49.408Z,13.60
2024-03-26T13:02:24.074Z,13.10
2024-03-26T13:04:59.079Z,14.20
2024-03-26T13:07:33.351Z,14.50
2024-03-26T13:10:08.366Z,11.90
2024-03-26T13:12:43.899Z,12.40
2024-03-26T13:15:18.737Z,11.50
2024-03-26T13:17:52.813Z,15.10
2024-03-26T13:20:28.095Z,15.30
2024-03-26T13:23:01.690Z,15.10
2024-03-26T13:25:36.851Z,11.30
2024-03-26T13:28:11.171Z,16.70
2024-03-26T13:30:46.175Z,14.30
2024-03-26T13:33:18.639Z,14.10
2024-03-26T13:35:51.651Z,12.20
2024-03-26T13:38:25.344Z,13.50
2024-03-26T13:41:00.189Z,11.20
2024-03-26T13:43:34.787Z,13.10
2024-03-26T13:46:09.808Z,12.80
2024-03-26T13:48:43.302Z,21.90
2024-03-26T13:51:18.393Z,38.00
2024-03-26T13:53:50.111Z,79.50
2024-03-26T13:56:24.143Z,69.00
2024-03-26T13:58:57.293Z,17.80
2024-03-26T14:01:33.919Z,13.80
2024-03-26T14:04:08.529Z,14.80
2024-03-26T14:06:41.796Z,14.80
2024-03-26T14:09:15.057Z,15.50
2024-03-26T14:11:48.846Z,17.20
2024-03-26T14:14:23.861Z,15.60
2024-03-26T14:16:58.478Z,14.10
2024-03-26T14:19:32.682Z,20.10
2024-03-26T14:22:06.253Z,12.20
2024-03-26T14:24:41.797Z,12.50
2024-03-26T14:27:16.568Z,11.70
2024-03-26T14:29:50.387Z,11.20
2024-03-26T14:32:25.286Z,11.70
2024-03-26T14:35:00.379Z,10.70
2024-03-26T14:37:34.075Z,11.70
2024-03-26T14:40:11.479Z,13.20
2024-03-26T14:42:45.888Z,16.40
2024-03-26T14:45:19.218Z,11.00
2024-03-26T14:48:10.896Z,11.10
2024-03-26T14:50:53.055Z,13.90
2024-03-26T14:53:27.016Z,11.10
2024-03-26T14:56:02.407Z,11.20
2024-03-26T14:58:35.505Z,12.20
2024-03-26T15:01:10.836Z,12.30
2024-03-26T15:03:45.422Z,12.00
2024-03-26T15:06:20.278Z,15.80
2024-03-26T15:08:55.186Z,55.80
2024-03-26T15:11:29.541Z,31.50
2024-03-26T15:14:03.191Z,54.40
2024-03-26T15:16:36.883Z,31.30
2024-03-26T15:19:10.958Z,29.90
2024-03-26T15:21:45.403Z,12.60
2024-03-26T15:24:18.759Z,9.60
2024-03-26T15:27:11.365Z,9.90
2024-03-26T15:30:02.733Z,10.00
2024-03-26T15:32:35.758Z,9.40
2024-03-26T15:35:11.882Z,17.30
2024-03-26T15:37:45.883Z,12.90
2024-03-26T15:40:20.003Z,13.80
2024-03-26T15:42:55.687Z,10.30
2024-03-26T15:45:29.188Z,9.20
2024-03-26T15:48:04.692Z,7.40
2024-03-26T15:50:38.268Z,10.50
2024-03-26T15:53:15.012Z,10.30
2024-03-26T15:55:52.919Z,17.10
2024-03-26T15:58:29.871Z,11.50
2024-03-26T16:01:05.131Z,8.30
2024-03-26T16:03:54.153Z,9.20
2024-03-26T16:06:25.553Z,9.90
2024-03-26T16:08:58.004Z,6.60
2024-03-26T16:11:32.364Z,7.10
2024-03-26T16:14:05.695Z,24.70
2024-03-26T16:16:39.324Z,54.10
2024-03-26T16:19:14.571Z,32.90
2024-03-26T16:21:49.933Z,49.90
2024-03-26T16:24:26.406Z,34.20
2024-03-26T16:27:02.104Z,33.50
2024-03-26T16:29:36.673Z,23.30
2024-03-26T16:32:14.023Z,30.50
2024-03-26T16:34:54.707Z,22.90
2024-03-26T16:37:31.627Z,21.80
2024-03-26T16:40:08.222Z,18.00
2024-03-26T16:42:41.825Z,19.40
2024-03-26T16:45:15.878Z,11.60
2024-03-26T16:47:50.496Z,13.90
2024-03-26T16:50:26.791Z,21.40
2024-03-26T16:53:02.239Z,22.30
2024-03-26T16:55:35.564Z,17.60
2024-03-26T16:58:10.756Z,26.50
2024-03-26T17:00:49.415Z,13.90
2024-03-26T17:03:23.298Z,13.90
2024-03-26T17:05:57.467Z,13.20
2024-03-26T17:08:30.473Z,12.80
2024-03-26T17:11:05.174Z,14.80
2024-03-26T17:13:41.744Z,11.00
2024-03-26T17:16:17.368Z,16.60
2024-03-26T17:18:51.024Z,15.50
2024-03-26T17:21:25.629Z,14.70
2024-03-26T17:23:58.723Z,12.40
2024-03-26T17:26:37.259Z,11.70
2024-03-26T17:29:14.341Z,21.10
2024-03-26T17:31:50.338Z,18.50
2024-03-26T17:34:28.839Z,15.70
2024-03-26T17:37:12.797Z,19.10
2024-03-26T17:39:46.705Z,19.90
2024-03-26T17:42:19.990Z,29.30
2024-03-26T17:44:53.701Z,23.00
2024-03-26T17:47:26.605Z,23.30
2024-03-26T17:50:14.951Z,33.10
2024-03-26T17:52:48.494Z,29.00
2024-03-26T17:55:22.854Z,60.30
2024-03-26T17:57:57.745Z,42.20
2024-03-26T18:00:31.734Z,36.10
2024-03-26T18:03:04.583Z,110.10
2024-03-26T18:05:41.736Z,59.70
2024-03-26T18:08:15.420Z,34.10
2024-03-26T18:10:56.473Z,38.40
2024-03-26T18:13:30.900Z,60.50
2024-03-26T18:16:09.359Z,51.40
2024-03-26T18:18:41.947Z,33.00
2024-03-26T18:21:15.880Z,46.30
2024-03-26T18:23:48.210Z,28.60
2024-03-26T18:26:22.114Z,29.20
2024-03-26T18:29:00.156Z,38.60
2024-03-26T18:31:33.658Z,48.30
2024-03-26T18:34:08.187Z,54.20
2024-03-26T18:36:42.772Z,61.60
2024-03-26T18:39:14.534Z,16.70
2024-03-26T18:41:49.153Z,17.60
2024-03-26T18:44:23.880Z,17.10
2024-03-26T18:46:56.149Z,19.00
2024-03-26T18:49:28.553Z,16.50
2024-03-26T18:52:06.914Z,15.10
2024-03-26T18:54:44.582Z,17.20
2024-03-26T18:57:22.436Z,18.70
2024-03-26T19:00:01.180Z,16.90
2024-03-26T19:02:34.665Z,17.30
2024-03-26T19:05:29.152Z,17.50
2024-03-26T19:08:07.445Z,17.50
2024-03-26T19:10:44.227Z,19.10
2024-03-26T19:13:17.947Z,19.50
2024-03-26T19:15:55.928Z,17.50
2024-03-26T19:18:29.867Z,19.90
2024-03-26T19:21:04.783Z,16.30
2024-03-26T19:23:37.131Z,16.50
2024-03-26T19:26:12.379Z,34.30
2024-03-26T19:28:46.546Z,21.00
2024-03-26T19:31:23.532Z,22.60
2024-03-26T19:34:01.665Z,20.50
2024-03-26T19:36:35.022Z,25.70
2024-03-26T19:39:11.768Z,21.70
2024-03-26T19:41:46.680Z,18.00
2024-03-26T19:44:28.171Z,16.70
2024-03-26T19:47:06.556Z,15.90
2024-03-26T19:49:40.980Z,13.70
2024-03-26T19:52:15.762Z,12.40
2024-03-26T19:54:48.982Z,13.70
2024-03-26T19:57:22.594Z,14.50
2024-03-26T19:59:57.840Z,16.40
2024-03-26T20:02:32.954Z,13.00
2024-03-26T20:05:09.072Z,13.40
2024-03-26T20:07:43.242Z,14.10
2024-03-26T20:10:16.986Z,14.70
2024-03-26T20:12:50.156Z,13.10
2024-03-26T20:15:23.975Z,13.20
2024-03-26T20:17:57.243Z,17.30
2024-03-26T20:20:30.259Z,13.20
2024-03-26T20:23:03.973Z,12.90
2024-03-26T20:25:38.580Z,14.50
2024-03-26T20:28:13.838Z,12.40
2024-03-26T20:30:47.804Z,12.30
2024-03-26T20:33:24.580Z,12.70
2024-03-26T20:35:58.439Z,11.30
2024-03-26T20:38:32.824Z,15.30
2024-03-26T20:41:09.003Z,19.90
2024-03-26T20:43:44.795Z,17.80
2024-03-26T20:46:17.662Z,14.90
2024-03-26T20:48:51.157Z,16.10
2024-03-26T20:51:29.445Z,14.50
2024-03-26T20:54:02.366Z,12.20
2024-03-26T20:56:36.468Z,12.50
2024-03-26T20:59:10.505Z,14.40
2024-03-26T21:01:43.789Z,12.80
2024-03-26T21:04:16.496Z,11.70
2024-03-26T21:06:51.187Z,13.00
2024-03-26T21:09:25.041Z,17.40
2024-03-26T21:11:58.250Z,13.50
2024-03-26T21:14:30.540Z,16.10
2024-03-26T21:17:10.127Z,14.70
2024-03-26T21:19:47.271Z,15.50
2024-03-26T21:22:21.300Z,11.00
2024-03-26T21:25:13.801Z,12.80
2024-03-26T21:27:48.687Z,12.80
2024-03-26T21:30:24.933Z,13.40
2024-03-26T21:33:03.952Z,12.20
2024-03-26T21:35:43.428Z,11.60
2024-03-26T21:38:23.567Z,10.20
2024-03-26T21:41:15.956Z,12.00
2024-03-26T21:43:48.572Z,11.80
2024-03-26T21:46:21.210Z,12.10
2024-03-26T21:48:54.563Z,12.70
2024-03-26T21:51:29.663Z,12.10
2024-03-26T21:54:05.930Z,12.70
2024-03-26T21:56:45.971Z,11.50
2024-03-26T21:59:19.019Z,10.10
2024-03-26T22:01:51.684Z,9.40
2024-03-26T22:04:26.180Z,12.50
2024-03-26T22:07:00.013Z,9.90
2024-03-26T22:09:33.965Z,10.20
2024-03-26T22:12:07.708Z,10.90
2024-03-26T22:14:41.969Z,10.00
2024-03-26T22:17:15.088Z,9.60
2024-03-26T22:19:53.954Z,10.60
2024-03-26T22:22:27.768Z,11.50
2024-03-26T22:25:03.706Z,10.50
2024-03-26T22:27:37.957Z,9.90
2024-03-26T22:30:16.813Z,10.80
2024-03-26T22:32:52.187Z,9.30
2024-03-26T22:35:25.481Z,8.60
2024-03-26T22:38:01.162Z,9.50
2024-03-26T22:40:37.907Z,10.80
2024-03-26T22:43:11.692Z,10.40
2024-03-26T22:45:45.485Z,10.20
2024-03-26T22:48:19.682Z,10.30
2024-03-26T22:50:53.519Z,10.30
2024-03-26T22:53:26.793Z,10.80
2024-03-26T22:56:03.494Z,9.90
2024-03-26T22:58:38.843Z,9.30
2024-03-26T23:01:20.060Z,10.20
2024-03-26T23:03:52.964Z,9.90
2024-03-26T23:06:28.159Z,10.10
2024-03-26T23:09:02.666Z,10.30
2024-03-26T23:11:36.650Z,8.80
2024-03-26T23:14:10.740Z,10.20
2024-03-26T23:16:45.403Z,10.00
2024-03-26T23:19:19.236Z,9.90
2024-03-26T23:21:51.240Z,11.40
2024-03-26T23:24:24.899Z,9.90
2024-03-26T23:26:58.340Z,8.30
2024-03-26T23:29:30.817Z,9.70
2024-03-26T23:32:05.090Z,9.60
2024-03-26T23:34:38.873Z,9.10
2024-03-26T23:37:13.540Z,10.60
2024-03-26T23:39:46.465Z,9.90
2024-03-26T23:42:20.917Z,10.90
2024-03-26T23:44:56.069Z,9.40
2024-03-26T23:47:29.332Z,10.90
2024-03-26T23:50:04.062Z,8.60
2024-03-26T23:52:39.178Z,10.40
2024-03-26T23:55:13.011Z,8.60
2024-03-26T23:57:47.393Z,9.50
